createdAt,value
2022-10-05T00:00:26.950Z,8.11
2022-10-05T00:01:01.927Z,8.12
2022-10-05T00:01:36.514Z,8.14
2022-10-05T00:02:17.318Z,8.09
2022-10-05T00:02:50.359Z,8.03
2022-10-05T00:03:22.784Z,7.98
2022-10-05T00:04:06.443Z,7.89
2022-10-05T00:04:38.942Z,7.91
2022-10-05T00:05:24.209Z,7.98
2022-10-05T00:05:57.384Z,7.92
2022-10-05T00:06:30.490Z,7.90
2022-10-05T00:07:17.267Z,8.00
2022-10-05T00:07:49.342Z,8.00
2022-10-05T00:08:25.581Z,8.05
2022-10-05T00:08:57.629Z,7.91
2022-10-05T00:09:31.872Z,7.85
2022-10-05T00:10:13.839Z,7.78
2022-10-05T00:10:46.729Z,7.84
2022-10-05T00:11:18.722Z,7.95
2022-10-05T00:11:51.575Z,7.88
2022-10-05T00:12:25.117Z,7.88
2022-10-05T00:12:57.012Z,7.91
2022-10-05T00:13:30.852Z,7.99
2022-10-05T00:14:14.706Z,8.02
2022-10-05T00:14:49.479Z,7.99
2022-10-05T00:15:22.472Z,8.05
2022-10-05T00:16:09.602Z,8.11
2022-10-05T00:16:41.661Z,8.01
2022-10-05T00:17:23.087Z,7.96
2022-10-05T00:17:55.714Z,7.98
2022-10-05T00:18:27.545Z,8.09
2022-10-05T00:18:59.827Z,8.04
2022-10-05T00:19:35.593Z,7.97
2022-10-05T00:20:23.513Z,7.74
2022-10-05T00:20:55.371Z,7.81
2022-10-05T00:21:28.973Z,7.92
2022-10-05T00:22:17.226Z,7.85
2022-10-05T00:23:01.090Z,7.91
2022-10-05T00:23:32.922Z,8.00
2022-10-05T00:24:10.367Z,8.10
2022-10-05T00:24:42.478Z,8.12
2022-10-05T00:25:19.043Z,8.22
2022-10-05T00:25:51.160Z,8.27
2022-10-05T00:26:25.367Z,8.31
2022-10-05T00:27:01.545Z,8.31
2022-10-05T00:27:37.529Z,8.31
2022-10-05T00:28:17.780Z,8.33
2022-10-05T00:28:50.333Z,8.11
2022-10-05T00:29:23.343Z,7.93
2022-10-05T00:29:59.743Z,7.76
2022-10-05T00:30:33.912Z,7.59
2022-10-05T00:31:16.670Z,7.74
2022-10-05T00:31:50.067Z,7.93
2022-10-05T00:32:21.901Z,8.05
2022-10-05T00:32:58.688Z,8.11
2022-10-05T00:33:32.005Z,8.17
2022-10-05T00:34:04.257Z,8.20
2022-10-05T00:34:36.445Z,8.22
2022-10-05T00:35:09.601Z,8.28
2022-10-05T00:35:41.481Z,8.24
2022-10-05T00:36:14.447Z,8.18
2022-10-05T00:36:46.616Z,8.09
2022-10-05T00:37:18.670Z,7.99
2022-10-05T00:37:55.356Z,7.91
2022-10-05T00:38:28.440Z,7.88
2022-10-05T00:39:02.021Z,7.83
2022-10-05T00:39:36.146Z,7.84
2022-10-05T00:40:37.560Z,7.94
2022-10-05T00:41:22.362Z,7.96
2022-10-05T00:42:13.971Z,8.01
2022-10-05T00:43:05.532Z,8.08
2022-10-05T00:44:04.203Z,8.15
2022-10-05T00:44:36.299Z,8.22
2022-10-05T00:45:13.822Z,8.27
2022-10-05T00:46:07.860Z,8.28
2022-10-05T00:47:12.618Z,8.28
2022-10-05T00:48:02.409Z,8.43
2022-10-05T00:48:40.122Z,8.55
2022-10-05T00:49:33.681Z,8.52
2022-10-05T00:50:21.144Z,8.47
2022-10-05T00:50:52.999Z,8.51
2022-10-05T00:51:28.818Z,8.49
2022-10-05T00:52:25.935Z,8.45
2022-10-05T00:53:24.515Z,8.39
2022-10-05T00:54:02.931Z,8.18
2022-10-05T00:54:47.388Z,8.25
2022-10-05T00:55:44.009Z,8.28
2022-10-05T00:56:51.740Z,8.23
2022-10-05T00:57:35.297Z,7.99
2022-10-05T00:58:15.817Z,7.80
2022-10-05T00:59:47.502Z,7.86
2022-10-05T01:00:25.294Z,7.43
2022-10-05T01:01:11.818Z,7.41
2022-10-05T01:02:16.414Z,7.55
2022-10-05T01:03:22.790Z,7.64
2022-10-05T01:04:19.448Z,7.79
2022-10-05T01:05:07.805Z,7.70
2022-10-05T01:06:12.742Z,7.74
2022-10-05T01:07:12.265Z,7.83
2022-10-05T01:07:49.973Z,7.92
2022-10-05T01:08:50.825Z,7.93
2022-10-05T01:09:32.927Z,7.78
2022-10-05T01:10:10.776Z,7.83
2022-10-05T01:10:48.361Z,7.73
2022-10-05T01:11:29.225Z,7.53
2022-10-05T01:12:16.338Z,7.27
2022-10-05T01:13:11.717Z,7.29
2022-10-05T01:14:05.683Z,7.29
2022-10-05T01:15:05.202Z,7.45
2022-10-05T01:15:45.121Z,7.75
2022-10-05T01:16:30.957Z,7.82
2022-10-05T01:17:20.424Z,7.86
2022-10-05T01:18:11.028Z,7.66
2022-10-05T01:19:16.616Z,7.61
2022-10-05T01:20:15.819Z,7.46
2022-10-05T01:20:56.513Z,7.34
2022-10-05T01:21:33.325Z,7.23
2022-10-05T01:22:30.058Z,7.22
2022-10-05T01:23:23.645Z,7.30
2022-10-05T01:24:07.500Z,7.13
2022-10-05T01:25:26.956Z,6.97
2022-10-05T01:26:23.518Z,6.99
2022-10-05T01:27:19.052Z,7.25
2022-10-05T01:28:13.053Z,7.53
2022-10-05T01:28:54.057Z,7.65
2022-10-05T01:29:39.021Z,7.49
2022-10-05T01:30:13.532Z,7.46
2022-10-05T01:31:06.391Z,7.49
2022-10-05T01:31:59.416Z,7.43
2022-10-05T01:33:00.995Z,7.47
2022-10-05T01:33:44.035Z,7.53
2022-10-05T01:34:25.529Z,7.53
2022-10-05T01:35:24.589Z,7.62
2022-10-05T01:36:15.068Z,7.64
2022-10-05T01:36:58.713Z,7.69
2022-10-05T01:37:43.918Z,7.53
2022-10-05T01:38:35.965Z,7.57
2022-10-05T01:39:23.808Z,7.61
2022-10-05T01:40:31.345Z,7.51
2022-10-05T01:41:19.682Z,7.47
2022-10-05T01:41:57.378Z,7.50
2022-10-05T01:43:07.623Z,7.46
2022-10-05T01:44:02.397Z,7.52
2022-10-05T01:44:48.986Z,7.59
2022-10-05T01:45:44.454Z,7.48
2022-10-05T01:46:34.500Z,7.45
2022-10-05T01:47:13.125Z,7.41
2022-10-05T01:47:50.124Z,7.48
2022-10-05T01:48:46.633Z,7.52
2022-10-05T01:49:38.744Z,7.52
2022-10-05T01:50:28.751Z,7.61
2022-10-05T01:51:10.400Z,7.58
2022-10-05T01:51:48.066Z,7.57
2022-10-05T01:52:53.359Z,7.55
2022-10-05T01:53:35.874Z,7.46
2022-10-05T01:54:29.276Z,7.29
2022-10-05T01:55:33.459Z,7.26
2022-10-05T01:56:24.979Z,7.01
2022-10-05T01:57:05.756Z,7.09
2022-10-05T01:57:44.086Z,7.20
2022-10-05T01:58:37.443Z,7.35
2022-10-05T01:59:33.218Z,7.43
2022-10-05T02:00:12.383Z,7.51
2022-10-05T02:01:06.362Z,7.49
2022-10-05T02:01:41.371Z,7.56
2022-10-05T02:02:20.790Z,7.65
2022-10-05T02:03:14.114Z,7.58
2022-10-05T02:03:53.244Z,7.54
2022-10-05T02:05:02.816Z,7.52
2022-10-05T02:05:54.447Z,7.49
2022-10-05T02:06:32.520Z,7.43
2022-10-05T02:07:13.865Z,7.49
2022-10-05T02:07:52.684Z,7.41
2022-10-05T02:08:32.093Z,7.44
2022-10-05T02:09:26.695Z,7.26
2022-10-05T02:10:07.896Z,7.34
2022-10-05T02:10:52.344Z,7.39
2022-10-05T02:11:24.272Z,7.41
2022-10-05T02:12:05.357Z,7.34
2022-10-05T02:12:38.959Z,7.43
2022-10-05T02:13:21.038Z,7.40
2022-10-05T02:14:01.246Z,7.28
2022-10-05T02:14:41.328Z,7.23
2022-10-05T02:15:24.193Z,7.34
2022-10-05T02:16:03.403Z,7.42
2022-10-05T02:16:41.216Z,7.24
2022-10-05T02:17:35.310Z,7.21
2022-10-05T02:18:14.394Z,7.03
2022-10-05T02:19:21.554Z,7.14
2022-10-05T02:20:06.216Z,7.30
2022-10-05T02:20:42.352Z,7.42
2022-10-05T02:21:14.939Z,7.48
2022-10-05T02:22:10.592Z,7.56
2022-10-05T02:22:56.096Z,7.33
2022-10-05T02:23:33.629Z,7.34
2022-10-05T02:24:11.850Z,7.44
2022-10-05T02:24:58.771Z,7.41
2022-10-05T02:25:35.431Z,7.35
2022-10-05T02:26:11.277Z,7.30
2022-10-05T02:26:43.614Z,7.37
2022-10-05T02:27:23.294Z,7.24
2022-10-05T02:28:14.187Z,7.05
2022-10-05T02:28:56.342Z,7.06
2022-10-05T02:29:32.291Z,7.15
2022-10-05T02:30:10.432Z,7.32
2022-10-05T02:30:51.511Z,7.26
2022-10-05T02:31:40.465Z,7.39
2022-10-05T02:32:21.717Z,7.49
2022-10-05T02:33:03.112Z,7.49
2022-10-05T02:33:37.373Z,7.49
2022-10-05T02:34:26.937Z,7.55
2022-10-05T02:35:04.328Z,7.54
2022-10-05T02:35:37.063Z,7.48
2022-10-05T02:36:32.915Z,7.48
2022-10-05T02:37:33.038Z,7.44
2022-10-05T02:38:14.569Z,7.47
2022-10-05T02:39:11.323Z,7.56
2022-10-05T02:39:58.328Z,7.62
2022-10-05T02:40:56.184Z,7.66
2022-10-05T02:41:47.115Z,7.73
2022-10-05T02:42:24.802Z,7.75
2022-10-05T02:43:28.068Z,7.78
2022-10-05T02:44:18.618Z,7.69
2022-10-05T02:45:11.453Z,7.55
2022-10-05T02:46:09.671Z,7.54
2022-10-05T02:47:18.517Z,7.53
2022-10-05T02:47:59.225Z,7.62
2022-10-05T02:48:42.800Z,7.64
2022-10-05T02:49:23.302Z,7.62
2022-10-05T02:50:08.398Z,7.57
2022-10-05T02:51:09.733Z,7.53
2022-10-05T02:52:00.029Z,7.54
2022-10-05T02:53:00.641Z,7.51
2022-10-05T02:54:01.018Z,7.44
2022-10-05T02:54:44.856Z,7.50
2022-10-05T02:55:38.622Z,7.43
2022-10-05T02:56:16.640Z,7.42
2022-10-05T02:57:31.634Z,7.28
2022-10-05T02:58:23.938Z,7.14
2022-10-05T02:59:15.053Z,6.95
2022-10-05T03:00:02.650Z,6.86
2022-10-05T03:00:42.632Z,6.87
2022-10-05T03:01:28.088Z,6.97
2022-10-05T03:02:12.535Z,6.86
2022-10-05T03:02:52.563Z,6.86
2022-10-05T03:03:39.728Z,6.98
2022-10-05T03:04:14.603Z,6.93
2022-10-05T03:04:58.062Z,6.81
2022-10-05T03:05:37.598Z,6.74
2022-10-05T03:06:18.119Z,6.84
2022-10-05T03:07:12.017Z,6.80
2022-10-05T03:08:26.038Z,6.97
2022-10-05T03:09:05.889Z,6.94
2022-10-05T03:10:01.656Z,6.85
2022-10-05T03:10:52.592Z,6.95
2022-10-05T03:11:46.869Z,7.07
2022-10-05T03:12:36.337Z,7.03
2022-10-05T03:13:45.520Z,7.05
2022-10-05T03:14:30.325Z,6.96
2022-10-05T03:15:17.206Z,6.91
2022-10-05T03:16:21.917Z,7.00
2022-10-05T03:17:15.755Z,6.97
2022-10-05T03:18:01.682Z,6.93
2022-10-05T03:18:42.860Z,6.92
2022-10-05T03:19:38.884Z,6.91
2022-10-05T03:20:26.708Z,7.01
2022-10-05T03:21:22.718Z,7.06
2022-10-05T03:22:00.627Z,7.18
2022-10-05T03:23:17.203Z,7.18
2022-10-05T03:24:22.966Z,7.19
2022-10-05T03:25:03.444Z,7.06
2022-10-05T03:26:20.942Z,6.84
2022-10-05T03:26:52.850Z,6.85
2022-10-05T03:27:42.026Z,6.99
2022-10-05T03:28:29.204Z,7.16
2022-10-05T03:29:39.520Z,7.21
2022-10-05T03:30:21.768Z,7.14
2022-10-05T03:31:20.732Z,7.12
2022-10-05T03:32:18.499Z,7.03
2022-10-05T03:32:50.648Z,7.09
2022-10-05T03:33:34.350Z,7.08
2022-10-05T03:34:15.194Z,7.05
2022-10-05T03:35:04.117Z,7.17
2022-10-05T03:35:49.207Z,7.22
2022-10-05T03:36:43.038Z,7.21
2022-10-05T03:37:49.595Z,7.08
2022-10-05T03:38:43.606Z,6.88
2022-10-05T03:39:28.136Z,7.00
2022-10-05T03:40:16.018Z,6.90
2022-10-05T03:41:01.557Z,6.89
2022-10-05T03:41:50.127Z,6.87
2022-10-05T03:42:38.959Z,6.89
2022-10-05T03:43:40.017Z,6.89
2022-10-05T03:44:21.153Z,6.85
2022-10-05T03:45:28.456Z,6.65
2022-10-05T03:46:12.429Z,6.75
2022-10-05T03:47:14.492Z,6.70
2022-10-05T03:47:50.549Z,6.70
2022-10-05T03:48:28.585Z,6.72
2022-10-05T03:49:00.654Z,6.62
2022-10-05T03:49:45.461Z,6.69
2022-10-05T03:50:51.771Z,6.77
2022-10-05T03:51:29.819Z,6.82
2022-10-05T03:52:28.081Z,6.87
2022-10-05T03:53:25.386Z,7.02
2022-10-05T03:54:03.825Z,7.02
2022-10-05T03:54:39.481Z,7.08
2022-10-05T03:55:17.567Z,7.10
2022-10-05T03:55:59.693Z,7.10
2022-10-05T03:56:45.412Z,7.17
2022-10-05T03:57:24.697Z,6.96
2022-10-05T03:58:02.962Z,6.78
2022-10-05T03:58:57.913Z,6.64
2022-10-05T03:59:37.981Z,6.64
2022-10-05T04:00:17.920Z,6.69
2022-10-05T04:00:53.797Z,6.67
2022-10-05T04:01:58.852Z,6.76
2022-10-05T04:02:36.834Z,6.68
2022-10-05T04:03:12.290Z,6.55
2022-10-05T04:03:49.811Z,6.48
2022-10-05T04:04:37.390Z,6.58
2022-10-05T04:05:09.241Z,6.76
2022-10-05T04:05:52.111Z,7.17
2022-10-05T04:06:27.990Z,7.06
2022-10-05T04:07:01.569Z,7.09
2022-10-05T04:07:56.755Z,7.14
2022-10-05T04:08:45.389Z,7.18
2022-10-05T04:09:32.568Z,7.26
2022-10-05T04:10:14.600Z,6.94
2022-10-05T04:10:48.816Z,6.78
2022-10-05T04:11:30.515Z,6.68
2022-10-05T04:12:23.970Z,6.79
2022-10-05T04:13:09.983Z,6.82
2022-10-05T04:14:18.991Z,7.13
2022-10-05T04:14:57.282Z,7.14
2022-10-05T04:15:43.083Z,7.08
2022-10-05T04:16:40.792Z,6.98
2022-10-05T04:17:21.914Z,6.78
2022-10-05T04:18:09.834Z,6.65
2022-10-05T04:19:32.522Z,6.78
2022-10-05T04:20:14.868Z,6.88
2022-10-05T04:20:53.466Z,6.87
2022-10-05T04:21:32.447Z,6.51
2022-10-05T04:22:12.134Z,6.21
2022-10-05T04:23:12.885Z,6.18
2022-10-05T04:23:55.224Z,6.35
2022-10-05T04:24:49.389Z,6.62
2022-10-05T04:25:42.574Z,6.82
2022-10-05T04:26:22.832Z,6.72
2022-10-05T04:26:59.903Z,6.83
2022-10-05T04:27:39.339Z,6.74
2022-10-05T04:28:43.637Z,6.68
2022-10-05T04:29:45.927Z,6.75
2022-10-05T04:30:19.760Z,6.77
2022-10-05T04:30:54.185Z,6.67
2022-10-05T04:31:38.328Z,6.77
2022-10-05T04:32:31.281Z,6.96
2022-10-05T04:33:10.382Z,7.01
2022-10-05T04:33:47.084Z,7.00
2022-10-05T04:34:36.945Z,6.77
2022-10-05T04:35:21.912Z,6.75
2022-10-05T04:36:14.908Z,6.66
2022-10-05T04:37:05.219Z,6.47
2022-10-05T04:37:58.241Z,6.50
2022-10-05T04:38:41.942Z,6.37
2022-10-05T04:39:31.219Z,6.60
2022-10-05T04:40:20.836Z,6.75
2022-10-05T04:41:37.105Z,6.82
2022-10-05T04:42:36.016Z,6.89
2022-10-05T04:43:21.410Z,6.91
2022-10-05T04:44:05.006Z,6.87
2022-10-05T04:45:04.670Z,6.90
2022-10-05T04:46:02.808Z,6.88
2022-10-05T04:47:05.807Z,7.04
2022-10-05T04:48:16.639Z,6.94
2022-10-05T04:49:19.469Z,6.93
2022-10-05T04:50:07.802Z,7.57
2022-10-05T04:51:01.034Z,7.43
2022-10-05T04:51:56.016Z,7.29
2022-10-05T04:52:48.041Z,7.27
2022-10-05T04:53:39.363Z,7.25
2022-10-05T04:54:22.681Z,6.97
2022-10-05T04:55:36.060Z,6.97
2022-10-05T04:56:15.557Z,7.06
2022-10-05T04:56:55.535Z,7.08
2022-10-05T04:57:50.797Z,7.05
2022-10-05T04:58:55.083Z,7.10
2022-10-05T04:59:29.752Z,7.04
2022-10-05T05:00:05.862Z,6.98
2022-10-05T05:00:59.877Z,6.97
2022-10-05T05:01:52.757Z,6.91
2022-10-05T05:03:03.714Z,6.82
2022-10-05T05:04:05.999Z,6.75
2022-10-05T05:04:51.784Z,6.69
2022-10-05T05:05:58.627Z,6.58
2022-10-05T05:06:38.495Z,6.60
2022-10-05T05:07:55.034Z,6.53
2022-10-05T05:08:49.377Z,6.59
2022-10-05T05:09:42.390Z,6.77
2022-10-05T05:10:32.632Z,6.91
2022-10-05T05:11:43.894Z,6.84
2022-10-05T05:12:27.627Z,6.82
2022-10-05T05:13:09.569Z,6.81
2022-10-05T05:13:58.543Z,6.74
2022-10-05T05:14:52.269Z,6.71
2022-10-05T05:15:51.530Z,6.63
2022-10-05T05:16:38.323Z,6.55
2022-10-05T05:17:39.626Z,6.59
2022-10-05T05:18:49.010Z,6.75
2022-10-05T05:20:04.809Z,6.85
2022-10-05T05:21:00.027Z,6.69
2022-10-05T05:22:03.021Z,6.74
2022-10-05T05:23:02.153Z,6.83
2022-10-05T05:23:44.554Z,6.85
2022-10-05T05:24:34.551Z,6.97
2022-10-05T05:25:35.723Z,6.95
2022-10-05T05:26:19.000Z,6.88
2022-10-05T05:27:07.197Z,7.09
2022-10-05T05:27:58.334Z,7.35
2022-10-05T05:28:53.581Z,7.43
2022-10-05T05:29:48.849Z,7.57
2022-10-05T05:30:32.631Z,7.63
2022-10-05T05:31:27.753Z,7.94
2022-10-05T05:32:02.879Z,8.42
2022-10-05T05:33:12.165Z,8.94
2022-10-05T05:33:55.704Z,9.66
2022-10-05T05:34:59.330Z,10.68
2022-10-05T05:36:00.149Z,11.37
2022-10-05T05:36:56.126Z,12.06
2022-10-05T05:37:49.780Z,12.72
2022-10-05T05:38:41.424Z,13.19
2022-10-05T05:39:37.694Z,13.64
2022-10-05T05:40:20.345Z,13.93
2022-10-05T05:41:14.048Z,14.07
2022-10-05T05:42:30.790Z,14.31
2022-10-05T05:43:18.089Z,14.73
2022-10-05T05:44:10.774Z,15.28
2022-10-05T05:44:48.316Z,15.69
2022-10-05T05:46:07.651Z,15.91
2022-10-05T05:47:02.841Z,16.21
2022-10-05T05:47:43.079Z,16.46
2022-10-05T05:48:35.466Z,16.68
2022-10-05T05:49:22.384Z,17.06
2022-10-05T05:50:19.698Z,17.14
2022-10-05T05:51:27.586Z,17.34
2022-10-05T05:52:04.950Z,17.98
2022-10-05T05:52:46.120Z,18.13
2022-10-05T05:53:28.294Z,18.26
2022-10-05T05:54:20.531Z,18.62
2022-10-05T05:55:01.009Z,19.01
2022-10-05T05:55:41.143Z,19.13
2022-10-05T05:56:45.697Z,19.00
2022-10-05T05:57:26.268Z,19.05
2022-10-05T05:58:15.027Z,19.00
2022-10-05T05:58:54.596Z,18.93
2022-10-05T05:59:30.687Z,18.69
2022-10-05T06:00:37.208Z,18.04
2022-10-05T06:01:32.141Z,18.06
2022-10-05T06:02:11.960Z,17.96
2022-10-05T06:03:06.340Z,17.65
2022-10-05T06:04:07.714Z,16.85
2022-10-05T06:05:03.453Z,16.70
2022-10-05T06:05:59.888Z,16.70
2022-10-05T06:06:36.009Z,16.14
2022-10-05T06:07:16.349Z,16.01
2022-10-05T06:07:51.330Z,16.12
2022-10-05T06:08:44.841Z,15.75
2022-10-05T06:09:30.740Z,15.41
2022-10-05T06:10:11.807Z,15.40
2022-10-05T06:10:49.187Z,15.66
2022-10-05T06:11:23.073Z,15.73
2022-10-05T06:12:07.480Z,15.80
2022-10-05T06:12:45.938Z,15.60
2022-10-05T06:13:36.171Z,15.24
2022-10-05T06:14:28.498Z,14.86
2022-10-05T06:15:19.306Z,14.66
2022-10-05T06:15:59.793Z,14.67
2022-10-05T06:16:37.036Z,14.89
2022-10-05T06:17:29.051Z,14.76
2022-10-05T06:18:11.437Z,15.12
2022-10-05T06:18:48.085Z,15.22
2022-10-05T06:19:23.779Z,15.41
2022-10-05T06:20:04.720Z,15.50
2022-10-05T06:20:43.615Z,15.45
2022-10-05T06:21:43.639Z,15.51
2022-10-05T06:22:42.832Z,15.57
2022-10-05T06:23:25.567Z,15.58
2022-10-05T06:24:05.772Z,15.58
2022-10-05T06:25:05.607Z,15.52
2022-10-05T06:26:09.765Z,15.31
2022-10-05T06:27:16.456Z,15.35
2022-10-05T06:28:00.335Z,15.33
2022-10-05T06:28:32.434Z,15.21
2022-10-05T06:29:09.084Z,15.12
2022-10-05T06:29:51.416Z,15.03
2022-10-05T06:30:24.095Z,14.91
2022-10-05T06:31:21.208Z,14.76
2022-10-05T06:32:09.929Z,14.52
2022-10-05T06:33:23.695Z,14.37
2022-10-05T06:34:04.080Z,14.45
2022-10-05T06:34:52.242Z,14.20
2022-10-05T06:35:37.288Z,14.10
2022-10-05T06:36:14.931Z,14.27
2022-10-05T06:36:56.852Z,14.34
2022-10-05T06:37:50.340Z,14.50
2022-10-05T06:38:40.673Z,14.47
2022-10-05T06:40:09.292Z,14.61
2022-10-05T06:41:29.154Z,14.37
2022-10-05T06:42:25.553Z,14.55
2022-10-05T06:43:08.418Z,14.54
2022-10-05T06:43:42.035Z,14.42
2022-10-05T06:44:59.994Z,14.65
2022-10-05T06:45:40.921Z,14.72
2022-10-05T06:46:31.359Z,14.71
2022-10-05T06:47:03.293Z,14.75
2022-10-05T06:47:47.220Z,14.85
2022-10-05T06:48:45.279Z,15.07
2022-10-05T06:49:23.486Z,15.36
2022-10-05T06:50:05.593Z,15.47
2022-10-05T06:50:48.864Z,15.43
2022-10-05T06:51:47.246Z,14.89
2022-10-05T06:52:51.160Z,15.04
2022-10-05T06:53:34.195Z,15.41
2022-10-05T06:54:09.655Z,15.38
2022-10-05T06:54:56.876Z,15.36
2022-10-05T06:55:55.243Z,15.47
2022-10-05T06:56:55.909Z,15.50
2022-10-05T06:57:39.887Z,15.54
2022-10-05T06:58:36.148Z,16.00
2022-10-05T06:59:35.903Z,16.17
2022-10-05T07:00:17.580Z,16.26
2022-10-05T07:00:58.150Z,16.20
2022-10-05T07:01:30.304Z,16.22
2022-10-05T07:02:19.434Z,16.18
2022-10-05T07:03:15.412Z,16.07
2022-10-05T07:03:59.106Z,16.06
2022-10-05T07:04:45.550Z,15.98
2022-10-05T07:05:42.915Z,15.98
2022-10-05T07:06:57.827Z,15.95
2022-10-05T07:07:42.617Z,15.92
2022-10-05T07:08:29.017Z,15.85
2022-10-05T07:09:19.158Z,15.93
2022-10-05T07:10:10.353Z,16.00
2022-10-05T07:10:51.576Z,16.05
2022-10-05T07:11:23.247Z,16.09
2022-10-05T07:12:12.903Z,16.11
2022-10-05T07:13:18.562Z,16.15
2022-10-05T07:13:56.010Z,16.20
2022-10-05T07:15:04.315Z,16.22
2022-10-05T07:16:01.928Z,16.28
2022-10-05T07:16:59.857Z,16.44
2022-10-05T07:17:51.985Z,16.63
2022-10-05T07:18:30.360Z,16.73
2022-10-05T07:19:13.130Z,16.81
2022-10-05T07:19:55.907Z,16.97
2022-10-05T07:21:00.105Z,17.07
2022-10-05T07:21:46.186Z,17.17
2022-10-05T07:22:37.543Z,17.22
2022-10-05T07:23:25.092Z,17.33
2022-10-05T07:24:20.379Z,17.43
2022-10-05T07:25:00.530Z,17.51
2022-10-05T07:26:01.233Z,17.46
2022-10-05T07:27:09.755Z,17.60
2022-10-05T07:28:02.747Z,17.72
2022-10-05T07:28:53.819Z,17.89
2022-10-05T07:29:37.004Z,17.78
2022-10-05T07:30:14.217Z,17.79
2022-10-05T07:30:46.430Z,18.01
2022-10-05T07:31:33.558Z,18.10
2022-10-05T07:32:29.833Z,18.08
2022-10-05T07:33:13.762Z,18.26
2022-10-05T07:34:18.934Z,18.35
2022-10-05T07:34:58.688Z,18.45
2022-10-05T07:35:56.031Z,18.57
2022-10-05T07:36:55.081Z,18.62
2022-10-05T07:37:54.290Z,18.68
2022-10-05T07:38:41.154Z,18.67
2022-10-05T07:39:36.769Z,18.77
2022-10-05T07:40:32.379Z,18.77
2022-10-05T07:41:13.373Z,18.76
2022-10-05T07:41:52.567Z,18.79
2022-10-05T07:42:48.750Z,18.73
2022-10-05T07:43:40.265Z,18.25
2022-10-05T07:44:30.989Z,18.04
2022-10-05T07:45:21.166Z,18.28
2022-10-05T07:46:01.743Z,18.37
2022-10-05T07:47:04.631Z,18.41
2022-10-05T07:47:45.544Z,18.48
2022-10-05T07:48:21.696Z,18.68
2022-10-05T07:49:07.170Z,18.77
2022-10-05T07:49:54.542Z,18.91
2022-10-05T07:50:48.965Z,18.76
2022-10-05T07:51:29.853Z,18.70
2022-10-05T07:52:10.665Z,18.74
2022-10-05T07:52:56.568Z,18.63
2022-10-05T07:53:36.694Z,18.72
2022-10-05T07:54:19.170Z,18.78
2022-10-05T07:54:57.245Z,18.33
2022-10-05T07:55:41.243Z,18.28
2022-10-05T07:56:22.232Z,18.43
2022-10-05T07:57:19.145Z,18.60
2022-10-05T07:58:05.426Z,18.78
2022-10-05T07:58:44.153Z,18.90
2022-10-05T07:59:45.670Z,19.03
2022-10-05T08:00:28.979Z,18.96
2022-10-05T08:01:22.738Z,19.21
2022-10-05T08:02:05.409Z,19.22
2022-10-05T08:02:52.836Z,19.07
2022-10-05T08:03:56.924Z,19.20
2022-10-05T08:04:41.784Z,19.27
2022-10-05T08:05:27.507Z,19.36
2022-10-05T08:06:01.442Z,19.35
2022-10-05T08:06:45.845Z,19.24
2022-10-05T08:07:18.420Z,19.23
2022-10-05T08:08:13.314Z,19.29
2022-10-05T08:08:58.874Z,19.39
2022-10-05T08:09:51.393Z,19.36
2022-10-05T08:10:33.980Z,19.56
2022-10-05T08:11:28.789Z,19.70
2022-10-05T08:12:20.353Z,19.79
2022-10-05T08:13:03.061Z,19.84
2022-10-05T08:13:43.335Z,19.83
2022-10-05T08:14:57.054Z,19.90
2022-10-05T08:15:34.873Z,20.02
2022-10-05T08:16:14.564Z,20.05
2022-10-05T08:16:48.532Z,20.09
2022-10-05T08:17:38.078Z,20.05
2022-10-05T08:18:33.997Z,20.20
2022-10-05T08:19:21.340Z,19.89
2022-10-05T08:20:17.399Z,20.03
2022-10-05T08:20:57.875Z,20.29
2022-10-05T08:21:41.506Z,20.15
2022-10-05T08:22:23.523Z,20.32
2022-10-05T08:23:04.942Z,20.44
2022-10-05T08:23:48.496Z,20.09
2022-10-05T08:24:23.165Z,20.23
2022-10-05T08:25:00.317Z,20.34
2022-10-05T08:25:52.305Z,20.44
2022-10-05T08:26:55.104Z,20.60
2022-10-05T08:27:54.630Z,20.03
2022-10-05T08:28:35.441Z,19.56
2022-10-05T08:29:25.593Z,19.65
2022-10-05T08:30:04.532Z,19.51
2022-10-05T08:30:57.048Z,19.50
2022-10-05T08:31:39.569Z,19.64
2022-10-05T08:32:19.329Z,19.73
2022-10-05T08:33:01.955Z,19.52
2022-10-05T08:34:03.673Z,19.22
2022-10-05T08:34:38.578Z,19.57
2022-10-05T08:35:43.890Z,19.93
2022-10-05T08:36:19.180Z,20.12
2022-10-05T08:37:18.725Z,20.10
2022-10-05T08:37:51.006Z,20.35
2022-10-05T08:38:31.685Z,20.57
2022-10-05T08:39:16.455Z,20.60
2022-10-05T08:40:31.023Z,20.22
2022-10-05T08:41:08.369Z,20.32
2022-10-05T08:41:58.153Z,20.47
2022-10-05T08:42:32.711Z,20.56
2022-10-05T08:43:10.431Z,20.71
2022-10-05T08:44:06.853Z,20.45
2022-10-05T08:44:55.093Z,20.53
2022-10-05T08:46:02.610Z,20.72
2022-10-05T08:46:52.491Z,20.88
2022-10-05T08:47:50.238Z,20.69
2022-10-05T08:49:04.655Z,20.47
2022-10-05T08:49:45.429Z,20.46
2022-10-05T08:51:06.293Z,20.70
2022-10-05T08:52:02.427Z,20.09
2022-10-05T08:53:07.335Z,20.24
2022-10-05T08:54:09.979Z,20.31
2022-10-05T08:54:50.692Z,20.31
2022-10-05T08:55:43.552Z,20.34
2022-10-05T08:56:39.460Z,20.27
2022-10-05T08:57:28.996Z,20.16
2022-10-05T08:58:12.547Z,20.14
2022-10-05T08:59:04.824Z,20.06
2022-10-05T09:00:02.840Z,20.23
2022-10-05T09:00:51.624Z,20.38
2022-10-05T09:01:55.475Z,20.57
2022-10-05T09:03:02.776Z,20.48
2022-10-05T09:03:53.554Z,20.73
2022-10-05T09:04:47.034Z,20.73
2022-10-05T09:05:46.262Z,20.77
2022-10-05T09:06:22.566Z,20.73
2022-10-05T09:07:12.329Z,20.94
2022-10-05T09:08:11.958Z,21.13
2022-10-05T09:09:06.322Z,21.18
2022-10-05T09:10:29.538Z,21.37
2022-10-05T09:11:10.240Z,21.48
2022-10-05T09:12:05.170Z,20.61
2022-10-05T09:12:45.964Z,20.14
2022-10-05T09:13:18.518Z,20.26
2022-10-05T09:14:07.119Z,20.57
2022-10-05T09:15:13.671Z,20.63
2022-10-05T09:16:13.808Z,20.92
2022-10-05T09:17:18.585Z,21.23
2022-10-05T09:18:07.698Z,21.14
2022-10-05T09:19:13.477Z,21.13
2022-10-05T09:19:45.303Z,21.42
2022-10-05T09:20:30.383Z,21.61
2022-10-05T09:21:10.452Z,21.68
2022-10-05T09:22:05.030Z,21.73
2022-10-05T09:22:56.333Z,21.87
2022-10-05T09:23:42.829Z,21.63
2022-10-05T09:24:14.582Z,21.54
2022-10-05T09:25:20.966Z,21.71
2022-10-05T09:26:04.063Z,21.57
2022-10-05T09:26:58.327Z,21.72
2022-10-05T09:27:49.448Z,21.71
2022-10-05T09:28:29.131Z,21.16
2022-10-05T09:29:38.297Z,20.22
2022-10-05T09:30:29.511Z,20.21
2022-10-05T09:31:38.875Z,20.53
2022-10-05T09:32:32.216Z,20.80
2022-10-05T09:33:13.638Z,21.01
2022-10-05T09:34:06.525Z,21.15
2022-10-05T09:35:17.110Z,21.33
2022-10-05T09:36:02.084Z,21.30
2022-10-05T09:37:05.975Z,21.34
2022-10-05T09:38:01.023Z,20.87
2022-10-05T09:39:15.414Z,21.07
2022-10-05T09:40:01.105Z,21.38
2022-10-05T09:41:00.932Z,21.66
2022-10-05T09:41:58.716Z,21.42
2022-10-05T09:42:42.275Z,21.64
2022-10-05T09:43:22.953Z,21.44
2022-10-05T09:44:09.862Z,21.43
2022-10-05T09:44:41.914Z,21.70
2022-10-05T09:45:23.279Z,21.76
2022-10-05T09:46:35.430Z,21.67
2022-10-05T09:47:28.542Z,21.65
2022-10-05T09:48:27.161Z,21.37
2022-10-05T09:49:11.556Z,21.57
2022-10-05T09:50:05.035Z,21.65
2022-10-05T09:51:01.377Z,21.45
2022-10-05T09:51:36.268Z,21.50
2022-10-05T09:52:23.174Z,21.34
2022-10-05T09:53:19.985Z,21.19
2022-10-05T09:54:06.985Z,21.28
2022-10-05T09:55:02.888Z,21.43
2022-10-05T09:55:53.767Z,21.55
2022-10-05T09:56:37.011Z,21.56
2022-10-05T09:57:36.893Z,21.54
2022-10-05T09:58:48.202Z,21.59
2022-10-05T09:59:34.642Z,21.02
2022-10-05T10:00:22.100Z,21.08
2022-10-05T10:01:33.649Z,20.95
2022-10-05T10:02:21.597Z,20.59
2022-10-05T10:03:12.266Z,20.32
2022-10-05T10:04:12.274Z,20.39
2022-10-05T10:05:06.880Z,20.68
2022-10-05T10:06:00.051Z,20.88
2022-10-05T10:06:32.165Z,21.06
2022-10-05T10:07:35.453Z,21.19
2022-10-05T10:08:25.078Z,21.14
2022-10-05T10:09:18.523Z,21.15
2022-10-05T10:10:11.856Z,21.17
2022-10-05T10:11:36.099Z,21.11
2022-10-05T10:12:32.576Z,21.12
2022-10-05T10:13:39.612Z,21.25
2022-10-05T10:14:29.698Z,21.41
2022-10-05T10:15:10.207Z,21.61
2022-10-05T10:15:57.812Z,21.58
2022-10-05T10:16:44.173Z,21.52
2022-10-05T10:17:57.414Z,21.52
2022-10-05T10:19:08.549Z,21.51
2022-10-05T10:20:07.910Z,20.61
2022-10-05T10:20:57.489Z,20.53
2022-10-05T10:21:46.881Z,20.85
2022-10-05T10:22:27.810Z,21.00
2022-10-05T10:23:36.444Z,21.17
2022-10-05T10:24:22.268Z,21.46
2022-10-05T10:24:56.811Z,21.72
2022-10-05T10:26:11.923Z,21.67
2022-10-05T10:26:58.891Z,21.64
2022-10-05T10:27:39.978Z,21.76
2022-10-05T10:28:23.737Z,21.94
2022-10-05T10:29:11.786Z,22.01
2022-10-05T10:30:25.135Z,22.08
2022-10-05T10:31:45.031Z,22.15
2022-10-05T10:32:45.040Z,22.22
2022-10-05T10:33:35.466Z,22.10
2022-10-05T10:34:19.113Z,22.23
2022-10-05T10:35:12.009Z,22.29
2022-10-05T10:36:01.631Z,22.27
2022-10-05T10:36:45.463Z,22.17